Time;durP1;ratioP1;P1;durP2;ratioP2;P2;SDS_P1;SDS_P2;PMS_P1;PMS_P2;Temp;Humidity;BMP_temperature;BMP_pressure;BME280_temperature;BME280_humidity;BME280_pressure;Samples;Min_cycle;Max_cycle;Signal;HPM_P1;HPM_P2
2021/10/27 00:01:04;;;;;;;23.27;9.95;;;;;;;3.58;100.00;95544.13;10466108;28;20127;-74
2021/10/27 00:06:05;;;;;;;15.32;8.10;;;;;;;3.54;100.00;95528.81;10464581;28;20028;-71
2021/10/27 00:11:05;;;;;;;13.50;8.48;;;;;;;3.55;100.00;95525.94;10476725;28;20896;-74
2021/10/27 00:16:06;;;;;;;15.57;10.20;;;;;;;3.65;100.00;95527.38;10483542;28;20506;-70
2021/10/27 00:21:07;;;;;;;16.88;9.80;;;;;;;3.76;100.00;95524.03;10459978;28;20070;-71
2021/10/27 00:26:07;;;;;;;13.93;9.43;;;;;;;3.75;100.00;95517.09;10482221;28;20024;-74
2021/10/27 00:31:08;;;;;;;18.35;9.88;;;;;;;3.72;100.00;95523.63;10464453;28;20048;-71
2021/10/27 00:36:08;;;;;;;14.30;7.67;;;;;;;3.69;100.00;95512.63;10463704;28;20023;-73
2021/10/27 00:41:09;;;;;;;16.77;9.93;;;;;;;3.54;100.00;95519.00;10441464;28;20271;-69
2021/10/27 00:46:22;;;;;;;16.65;9.32;;;;;;;3.52;100.00;95506.97;10440852;28;20028;-71
2021/10/27 00:51:22;;;;;;;14.98;9.45;;;;;;;3.46;100.00;95505.97;10425870;28;20481;-72
2021/10/27 00:56:23;;;;;;;17.27;8.40;;;;;;;3.51;100.00;95508.78;10464303;28;20016;-75
2021/10/27 01:01:23;;;;;;;18.27;8.98;;;;;;;3.49;100.00;95508.19;10464276;28;20594;-72
2021/10/27 01:06:23;;;;;;;14.82;8.55;;;;;;;3.50;100.00;95503.69;10460690;28;20599;-74
2021/10/27 01:11:24;;;;;;;15.55;9.63;;;;;;;3.51;100.00;95503.47;10438857;28;20036;-69
2021/10/27 01:16:24;;;;;;;15.23;9.73;;;;;;;3.53;100.00;95509.41;10439616;28;20017;-70
2021/10/27 01:21:29;;;;;;;19.80;10.80;;;;;;;3.50;100.00;95501.88;10459072;28;20044;-77
2021/10/27 01:26:30;;;;;;;17.55;9.25;;;;;;;3.37;100.00;95513.31;10440168;28;20025;-70
2021/10/27 01:31:30;;;;;;;16.97;9.77;;;;;;;3.24;100.00;95519.50;10438608;28;20068;-77
2021/10/27 01:36:31;;;;;;;26.38;13.38;;;;;;;2.75;100.00;95520.78;10455026;28;20799;-72
2021/10/27 01:41:31;;;;;;;29.48;13.80;;;;;;;2.38;100.00;95523.78;10481521;28;20048;-70
2021/10/27 01:46:35;;;;;;;23.50;15.10;;;;;;;2.26;100.00;95536.03;10446938;28;20029;-70
2021/10/27 01:51:36;;;;;;;24.30;14.93;;;;;;;2.09;100.00;95530.25;10421402;28;20271;-70
2021/10/27 01:56:37;;;;;;;30.92;13.38;;;;;;;2.09;100.00;95517.00;10421271;28;20021;-70
2021/10/27 02:01:37;;;;;;;29.05;13.50;;;;;;;2.22;100.00;95530.31;10456178;28;20031;-69
2021/10/27 02:06:38;;;;;;;29.52;13.52;;;;;;;2.25;100.00;95536.22;10470023;28;20029;-71
2021/10/27 02:11:38;;;;;;;22.10;12.68;;;;;;;2.13;100.00;95542.09;10470027;28;20029;-74
2021/10/27 02:16:39;;;;;;;27.23;13.88;;;;;;;2.13;100.00;95536.81;10470094;28;20028;-69
2021/10/27 02:21:39;;;;;;;28.20;13.57;;;;;;;1.96;100.00;95538.19;10470018;28;20116;-73
2021/10/27 02:26:40;;;;;;;28.30;13.98;;;;;;;2.02;100.00;95551.47;10452702;28;20812;-70
2021/10/27 02:31:41;;;;;;;28.23;13.73;;;;;;;2.00;100.00;95555.34;10465057;28;20060;-70
2021/10/27 02:36:41;;;;;;;29.27;14.65;;;;;;;1.98;100.00;95549.41;10444522;28;20478;-70
2021/10/27 02:41:42;;;;;;;26.25;14.30;;;;;;;1.92;100.00;95547.56;10434901;28;20020;-73
2021/10/27 02:46:43;;;;;;;27.40;15.38;;;;;;;1.84;100.00;95548.53;10450792;28;20490;-73
2021/10/27 02:51:43;;;;;;;30.80;16.20;;;;;;;1.84;100.00;95549.38;10468352;28;20025;-69
2021/10/27 02:56:44;;;;;;;29.80;14.68;;;;;;;1.79;100.00;95551.78;10468576;28;20080;-70
2021/10/27 03:01:44;;;;;;;29.58;15.38;;;;;;;1.81;100.00;95544.44;10468523;28;20578;-70
2021/10/27 03:06:45;;;;;;;24.13;14.52;;;;;;;1.68;100.00;95545.22;10485551;28;20024;-72
2021/10/27 03:11:45;;;;;;;29.92;15.18;;;;;;;1.71;100.00;95554.59;10468283;28;20028;-74
2021/10/27 03:16:46;;;;;;;33.03;15.32;;;;;;;1.60;100.00;95568.41;10465398;28;20025;-70
2021/10/27 03:21:47;;;;;;;33.33;14.48;;;;;;;1.55;100.00;95561.06;10443003;28;20161;-69
2021/10/27 03:26:48;;;;;;;31.80;16.63;;;;;;;1.43;100.00;95567.94;10442133;28;20025;-70
2021/10/27 03:31:48;;;;;;;29.70;14.57;;;;;;;1.36;100.00;95570.53;10425761;28;20045;-74
2021/10/27 03:36:48;;;;;;;36.50;14.73;;;;;;;1.32;100.00;95571.94;10444089;28;20421;-69
2021/10/27 03:41:50;;;;;;;27.95;15.48;;;;;;;1.26;100.00;95572.72;10425568;28;20059;-73
2021/10/27 03:46:51;;;;;;;26.10;14.82;;;;;;;1.32;100.00;95570.09;10450029;28;20028;-73
2021/10/27 03:51:52;;;;;;;28.42;14.30;;;;;;;1.24;100.00;95564.13;10482219;28;20021;-70
2021/10/27 03:56:52;;;;;;;32.17;15.85;;;;;;;1.29;100.00;95567.03;10465747;28;20024;-70
2021/10/27 04:01:53;;;;;;;30.52;14.50;;;;;;;1.34;100.00;95559.28;10466026;28;20028;-76
2021/10/27 04:06:53;;;;;;;29.58;15.55;;;;;;;1.36;100.00;95558.09;10465494;28;20024;-70
2021/10/27 04:11:54;;;;;;;29.70;16.63;;;;;;;1.32;100.00;95556.03;10449472;28;20462;-75
2021/10/27 04:16:54;;;;;;;32.42;16.38;;;;;;;1.27;100.00;95569.03;10464500;28;20024;-76
2021/10/27 04:21:55;;;;;;;31.67;13.57;;;;;;;1.23;100.00;95570.44;10464856;28;20032;-72
2021/10/27 04:26:56;;;;;;;27.92;15.32;;;;;;;1.22;100.00;95576.75;10430761;28;20062;-73
2021/10/27 04:31:57;;;;;;;30.58;16.20;;;;;;;1.21;100.00;95569.81;10463327;28;20048;-77
2021/10/27 04:36:58;;;;;;;39.22;13.98;;;;;;;1.32;100.00;95572.75;10459083;28;20021;-74
2021/10/27 04:41:59;;;;;;;29.60;14.68;;;;;;;1.38;100.00;95575.63;10464392;28;20540;-72
2021/10/27 04:47:03;;;;;;;26.67;13.80;;;;;;;1.39;100.00;95570.13;10461645;28;20017;-75
2021/10/27 04:52:03;;;;;;;34.00;14.05;;;;;;;1.49;100.00;95572.44;10439535;28;20130;-77
2021/10/27 04:57:04;;;;;;;34.83;14.85;;;;;;;1.52;100.00;95579.97;10437376;28;20186;-72
2021/10/27 05:02:04;;;;;;;38.45;14.60;;;;;;;1.50;100.00;95580.19;10438694;28;20614;-72
2021/10/27 05:07:05;;;;;;;36.28;15.55;;;;;;;1.53;100.00;95601.00;10422038;28;20094;-72
2021/10/27 05:12:07;;;;;;;38.63;13.98;;;;;;;1.62;100.00;95598.16;10421627;28;20210;-73
2021/10/27 05:17:13;;;;;;;29.95;15.05;;;;;;;1.65;100.00;95597.81;10438649;28;20021;-75
2021/10/27 05:22:16;;;;;;;36.88;17.15;;;;;;;1.53;100.00;95603.66;10421579;28;20021;-73
2021/10/27 05:27:16;;;;;;;27.83;15.30;;;;;;;1.58;100.00;95618.97;10404642;28;20064;-72
2021/10/27 05:32:17;;;;;;;38.83;14.20;;;;;;;1.66;100.00;95624.09;10454616;28;20086;-76
2021/10/27 05:37:17;;;;;;;42.78;17.02;;;;;;;1.79;100.00;95631.31;10469193;28;20401;-77
2021/10/27 05:42:21;;;;;;;41.87;17.63;;;;;;;2.03;100.00;95631.81;10470931;28;20406;-72
2021/10/27 05:47:21;;;;;;;43.78;18.58;;;;;;;2.19;100.00;95641.25;10471481;28;20282;-73
2021/10/27 05:57:22;;;;;;;53.47;19.50;;;;;;;2.50;100.00;95645.28;10488556;28;20811;-77
2021/10/27 06:02:22;;;;;;;40.70;17.35;;;;;;;2.67;100.00;95648.38;10468186;28;20029;-75
2021/10/27 06:07:23;;;;;;;35.22;20.05;;;;;;;2.86;100.00;95657.38;10429448;28;20029;-73
2021/10/27 06:12:23;;;;;;;29.80;18.40;;;;;;;3.11;100.00;95664.78;10445192;28;20033;-73
2021/10/27 06:17:23;;;;;;;43.17;18.90;;;;;;;3.32;100.00;95663.75;10445184;28;20013;-73
2021/10/27 06:22:24;;;;;;;30.58;13.38;;;;;;;3.64;100.00;95666.59;10433838;28;20028;-80
2021/10/27 06:27:25;;;;;;;38.63;15.10;;;;;;;3.88;100.00;95670.44;10468806;28;20532;-76
2021/10/27 06:48:09;;;;;;;20.45;10.07;;;;;;;4.83;100.00;95688.53;10443976;28;20114;-72
2021/10/27 06:53:10;;;;;;;22.30;11.25;;;;;;;4.83;100.00;95683.22;10443910;28;20474;-75
2021/10/27 06:58:12;;;;;;;21.55;10.63;;;;;;;5.09;100.00;95687.56;10444775;28;20104;-73
2021/10/27 07:19:04;;;;;;;33.60;16.73;;;;;;;5.69;100.00;95674.81;10444623;28;20057;-72
2021/10/27 07:24:05;;;;;;;31.05;15.38;;;;;;;5.88;100.00;95678.34;10449455;28;20473;-73
2021/10/27 07:29:05;;;;;;;27.67;14.43;;;;;;;6.18;100.00;95673.13;10466598;28;20454;-73
2021/10/27 07:34:10;;;;;;;28.65;13.15;;;;;;;6.48;100.00;95659.03;10467563;28;20039;-73
2021/10/27 07:44:30;;;;;;;21.77;11.82;;;;;;;7.64;100.00;95671.38;10484232;28;20041;-72
2021/10/27 07:49:30;;;;;;;21.38;11.68;;;;;;;7.87;100.00;95678.59;10466464;28;20502;-75
2021/10/27 07:54:30;;;;;;;30.67;13.15;;;;;;;7.91;100.00;95682.44;10466252;28;20028;-77
2021/10/27 07:59:32;;;;;;;26.77;12.55;;;;;;;7.96;100.00;95671.84;10465524;28;20081;-78
2021/10/27 08:04:34;;;;;;;21.88;10.98;;;;;;;8.20;100.00;95675.34;10467067;28;20020;-74
2021/10/27 08:09:35;;;;;;;25.23;12.25;;;;;;;8.65;100.00;95668.50;10483580;28;20071;-74
2021/10/27 08:14:36;;;;;;;18.65;9.00;;;;;;;9.03;100.00;95663.59;10426716;28;20041;-73
2021/10/27 08:19:36;;;;;;;22.08;10.65;;;;;;;9.01;100.00;95663.00;10424174;28;20029;-74
2021/10/27 08:24:37;;;;;;;14.23;7.87;;;;;;;9.58;100.00;95659.44;10423647;28;20124;-77
2021/10/27 08:29:39;;;;;;;13.55;8.25;;;;;;;10.16;100.00;95651.97;10464305;28;20301;-77
2021/10/27 08:34:46;;;;;;;9.93;6.95;;;;;;;10.12;100.00;95655.38;10465510;28;20117;-79
2021/10/27 08:39:46;;;;;;;10.73;7.32;;;;;;;10.25;100.00;95650.47;10450446;28;20051;-73
2021/10/27 08:44:47;;;;;;;11.30;6.57;;;;;;;10.71;99.21;95647.59;10439950;28;20025;-73
2021/10/27 08:49:48;;;;;;;11.05;7.13;;;;;;;11.11;91.86;95641.03;10422855;28;20389;-77
2021/10/27 08:54:48;;;;;;;11.38;6.90;;;;;;;11.02;90.11;95634.47;10422380;28;20024;-73
2021/10/27 09:05:04;;;;;;;13.45;6.90;;;;;;;12.60;79.60;95640.47;10440475;28;20060;-74
2021/10/27 09:37:40;;;;;;;8.38;4.70;;;;;;;22.15;37.31;95595.41;10425532;28;20136;-79
2021/10/27 09:42:52;;;;;;;5.88;4.15;;;;;;;23.31;33.58;95591.84;10390944;28;20025;-79
2021/10/27 10:04:44;;;;;;;4.47;3.80;;;;;;;26.19;29.33;95564.53;10397558;28;20025;-73
2021/10/27 10:09:44;;;;;;;9.25;4.55;;;;;;;27.11;28.63;95559.72;10380497;28;20034;-78
2021/10/27 10:14:49;;;;;;;5.32;3.72;;;;;;;27.17;27.66;95551.13;10396018;28;20033;-71
2021/10/27 10:19:50;;;;;;;3.63;3.13;;;;;;;25.94;28.29;95545.34;10379604;28;20025;-72
2021/10/27 10:24:50;;;;;;;11.95;4.47;;;;;;;27.09;28.59;95537.19;10369467;28;20036;-77
2021/10/27 10:30:01;;;;;;;4.57;3.00;;;;;;;27.47;26.51;95537.63;10410132;28;20049;-72
2021/10/27 10:35:12;;;;;;;4.13;2.97;;;;;;;27.51;26.89;95530.22;10429051;28;20124;-73
2021/10/27 11:40:23;;;;;;;9.43;5.20;;;;;;;18.13;39.84;95498.81;10481397;28;20119;-73
2021/10/27 11:50:38;;;;;;;8.55;5.97;;;;;;;16.26;44.82;95498.47;10483904;28;20068;-78
2021/10/27 11:55:39;;;;;;;8.48;5.90;;;;;;;15.59;48.77;95494.56;10483078;28;20545;-77
2021/10/27 12:00:45;;;;;;;10.13;5.97;;;;;;;14.85;54.05;95487.31;10465386;28;20025;-76
2021/10/27 12:05:57;;;;;;;14.25;6.78;;;;;;;15.06;54.85;95483.63;10464434;28;20471;-76
2021/10/27 12:12:05;;;;;;;14.38;6.68;;;;;;;14.86;53.47;95474.59;10465250;28;20051;-76
2021/10/27 12:21:56;;;;;;;15.48;6.72;;;;;;;14.58;53.88;95470.69;10477684;28;20409;-73
2021/10/27 12:27:08;;;;;;;8.32;5.97;;;;;;;14.61;54.73;95470.97;10464897;28;20044;-72
2021/10/27 12:32:12;;;;;;;13.88;7.20;;;;;;;14.51;57.02;95466.41;10481460;28;20066;-72
2021/10/27 12:37:45;;;;;;;11.77;6.97;;;;;;;14.02;64.43;95476.13;10463514;28;20028;-72
2021/10/27 12:42:46;;;;;;;10.57;6.97;;;;;;;14.18;60.77;95468.75;10464107;28;20033;-72
2021/10/27 12:48:00;;;;;;;13.35;6.57;;;;;;;14.18;59.31;95467.94;10447159;28;20027;-72
2021/10/27 12:53:07;;;;;;;10.75;6.25;;;;;;;14.08;58.27;95463.41;10442976;28;20035;-73
2021/10/27 12:58:15;;;;;;;13.15;6.32;;;;;;;13.85;58.84;95457.53;10440594;28;20032;-75
2021/10/27 13:14:40;;;;;;;13.98;6.43;;;;;;;13.82;59.08;95452.69;10476601;28;20050;-72
2021/10/27 13:30:07;;;;;;;10.60;6.35;;;;;;;13.50;62.09;95443.03;10482734;28;20056;-76
2021/10/27 13:35:08;;;;;;;9.32;5.75;;;;;;;13.33;64.45;95448.72;10445917;28;20048;-74
2021/10/27 13:40:10;;;;;;;15.02;6.40;;;;;;;13.04;64.68;95453.88;10455477;28;20451;-75
2021/10/27 14:06:10;;;;;;;15.05;6.97;;;;;;;13.08;66.10;95435.28;10446830;28;20187;-76
2021/10/27 15:19:55;;;;;;;36.42;11.18;;;;;;;10.86;99.47;95471.38;10445827;28;20468;-71
2021/10/27 15:30:26;;;;;;;18.92;10.77;;;;;;;10.24;97.61;95484.16;10475810;28;20044;-77
2021/10/27 15:35:44;;;;;;;27.08;11.27;;;;;;;10.09;100.00;95487.50;10459008;28;20029;-71
2021/10/27 15:51:07;;;;;;;25.38;12.73;;;;;;;9.53;100.00;95496.47;10472808;28;20041;-71
2021/10/27 15:56:08;;;;;;;25.45;13.15;;;;;;;9.39;100.00;95497.88;10460815;28;20402;-72
2021/10/27 16:01:08;;;;;;;30.10;13.68;;;;;;;9.30;100.00;95508.22;10455379;28;20033;-74
2021/10/27 16:06:10;;;;;;;24.87;12.70;;;;;;;9.12;100.00;95511.16;10464716;28;20032;-71
2021/10/27 16:11:10;;;;;;;26.48;13.68;;;;;;;9.17;100.00;95524.66;10463445;28;20327;-70
2021/10/27 16:16:14;;;;;;;29.23;13.13;;;;;;;9.13;100.00;95526.22;10456225;28;20093;-70
2021/10/27 16:21:15;;;;;;;40.08;14.00;;;;;;;9.01;100.00;95537.78;10466434;28;20278;-73
2021/10/27 16:26:16;;;;;;;26.65;13.82;;;;;;;8.86;100.00;95542.91;10463936;28;20406;-73
2021/10/27 16:31:17;;;;;;;28.90;13.45;;;;;;;8.50;100.00;95553.00;10462616;28;20048;-71
2021/10/27 16:36:21;;;;;;;32.65;14.45;;;;;;;8.20;100.00;95565.53;10459935;28;20020;-76
2021/10/27 16:41:21;;;;;;;39.67;13.23;;;;;;;8.17;100.00;95565.19;10438156;28;20517;-77
2021/10/27 16:46:22;;;;;;;33.08;15.93;;;;;;;8.01;100.00;95577.47;10459995;28;20036;-71
2021/10/27 16:51:22;;;;;;;26.35;13.40;;;;;;;7.95;100.00;95597.94;10462136;28;20409;-77
2021/10/27 16:56:23;;;;;;;41.35;15.32;;;;;;;8.02;100.00;95595.97;10478375;28;21890;-69
2021/10/27 17:01:23;;;;;;;34.40;16.30;;;;;;;7.92;100.00;95600.28;10414562;28;20064;-73
2021/10/27 17:06:24;;;;;;;29.73;15.00;;;;;;;7.84;100.00;95607.63;10404268;28;20021;-74
2021/10/27 17:11:25;;;;;;;31.50;13.52;;;;;;;7.73;100.00;95608.44;10462101;28;20058;-77
2021/10/27 17:16:25;;;;;;;34.42;15.02;;;;;;;7.77;100.00;95617.63;10460416;28;20017;-72
2021/10/27 17:21:27;;;;;;;30.50;14.98;;;;;;;7.67;100.00;95625.41;10462190;28;20025;-76
2021/10/27 17:26:28;;;;;;;31.27;13.50;;;;;;;7.67;100.00;95638.78;10459462;28;20199;-75
2021/10/27 17:31:28;;;;;;;30.88;15.30;;;;;;;7.65;100.00;95630.19;10461732;28;20048;-74
2021/10/27 17:36:29;;;;;;;33.53;14.53;;;;;;;7.56;100.00;95639.59;10447949;28;20568;-76
2021/10/27 17:41:29;;;;;;;34.20;14.93;;;;;;;7.50;100.00;95644.03;10461236;28;20370;-77
2021/10/27 17:46:40;;;;;;;30.77;15.77;;;;;;;7.37;100.00;95642.38;10426565;28;20090;-74
2021/10/27 17:51:56;;;;;;;36.03;16.58;;;;;;;7.14;100.00;95643.13;10406621;28;20366;-69
2021/10/27 18:02:15;;;;;;;;;;;;;;;7.00;100.00;95643.34;10481123;28;20111;-77
2021/10/27 18:07:20;;;;;;;45.53;20.55;;;;;;;6.83;100.00;95626.31;10472300;28;19913;-75
2021/10/27 18:12:21;;;;;;;35.80;19.42;;;;;;;6.80;100.00;95624.09;10461173;28;20020;-71
2021/10/27 18:17:24;;;;;;;43.63;23.00;;;;;;;6.77;100.00;95644.06;10461922;28;20417;-75
2021/10/27 18:22:44;;;;;;;49.45;23.20;;;;;;;6.77;100.00;95641.41;10477972;28;20035;-71
2021/10/27 18:38:13;;;;;;;;;;;;;;;6.75;100.00;95666.72;10438965;28;20021;-72
2021/10/27 18:43:29;;;;;;;51.10;19.88;;;;;;;6.59;100.00;95670.81;10465296;28;20003;-75
2021/10/27 18:48:29;;;;;;;47.75;21.70;;;;;;;6.49;100.00;95669.50;10489171;28;20029;-75
2021/10/27 18:54:02;;;;;;;47.50;21.00;;;;;;;6.43;100.00;95674.91;10470617;28;20125;-72
2021/10/27 19:19:56;;;;;;;51.30;20.92;;;;;;;6.11;100.00;95694.56;10433461;28;20024;-76
2021/10/27 19:25:02;;;;;;;42.78;21.02;;;;;;;6.06;100.00;95696.25;10448497;28;20122;-77
2021/10/27 19:35:23;;;;;;;34.00;17.75;;;;;;;5.91;100.00;95700.03;10447812;28;20029;-71
2021/10/27 20:54:24;;;;;;;27.30;13.57;;;;;;;5.13;100.00;95730.59;10471526;28;19916;-73
2021/10/27 21:14:46;;;;;;;;;;;;;;;4.83;100.00;95739.16;10486510;28;20275;-72
2021/10/27 21:19:47;;;;;;;29.20;15.07;;;;;;;4.78;100.00;95733.63;10485481;28;19912;-73
2021/10/27 21:24:49;;;;;;;32.88;15.52;;;;;;;4.80;100.00;95736.91;10444858;28;20025;-70
2021/10/27 21:29:59;;;;;;;29.67;17.13;;;;;;;4.77;100.00;95726.66;10472762;28;20399;-71
2021/10/27 21:45:38;;;;;;;31.83;16.13;;;;;;;4.53;100.00;95723.69;10453895;28;19912;-72
2021/10/27 21:50:39;;;;;;;28.90;14.88;;;;;;;4.44;100.00;95733.75;10426810;28;20509;-77
2021/10/27 21:55:41;;;;;;;29.38;15.73;;;;;;;4.35;100.00;95737.66;10460213;28;20059;-73
2021/10/27 22:00:41;;;;;;;39.33;17.17;;;;;;;4.27;100.00;95733.41;10467382;28;20024;-77
2021/10/27 22:05:42;;;;;;;30.77;16.17;;;;;;;4.16;100.00;95735.88;10484873;28;20440;-71
2021/10/27 22:10:42;;;;;;;23.60;14.70;;;;;;;4.06;100.00;95739.78;10441585;28;20283;-71
2021/10/27 22:15:43;;;;;;;35.55;18.02;;;;;;;4.00;100.00;95747.78;10448725;28;20027;-71
2021/10/27 22:20:44;;;;;;;34.15;15.05;;;;;;;3.80;100.00;95751.25;10471195;28;20024;-71
2021/10/27 22:25:45;;;;;;;36.90;17.40;;;;;;;3.79;100.00;95751.47;10450102;28;20021;-71
2021/10/27 22:30:46;;;;;;;36.05;16.60;;;;;;;3.81;100.00;95758.22;10450833;28;20151;-71
2021/10/27 22:35:47;;;;;;;35.85;16.63;;;;;;;3.68;100.00;95758.22;10433222;28;20055;-70
2021/10/27 22:40:47;;;;;;;39.03;16.60;;;;;;;3.48;100.00;95748.38;10470400;28;20027;-72
2021/10/27 22:45:48;;;;;;;32.05;17.52;;;;;;;3.34;100.00;95749.41;10443866;28;20076;-72
2021/10/27 22:50:49;;;;;;;36.30;17.08;;;;;;;3.36;100.00;95747.34;10450785;28;20085;-71
2021/10/27 22:55:49;;;;;;;38.90;20.27;;;;;;;3.42;100.00;95747.38;10428917;28;20028;-69
2021/10/27 23:01:04;;;;;;;36.70;19.67;;;;;;;3.42;100.00;95758.00;10441750;28;20506;-69
2021/10/27 23:06:18;;;;;;;36.58;18.42;;;;;;;3.46;100.00;95745.13;10450663;28;20039;-71
2021/10/27 23:43:10;;;;;;;34.13;17.03;;;;;;;3.19;100.00;95734.44;10475005;28;19916;-70
2021/10/27 23:48:11;;;;;;;31.50;15.52;;;;;;;3.12;100.00;95725.66;10414838;28;20113;-70
2021/10/27 23:53:20;;;;;;;31.67;16.50;;;;;;;3.10;100.00;95730.38;10460565;28;20494;-70
